sensor_id;sensor_type;location;lat;lon;timestamp;P1;durP1;ratioP1;P2;durP2;ratioP2
34988;SDS011;21192;40.182;44.516;2023-04-02T00:02:54;59.88;;;30.52;;
34988;SDS011;21192;40.182;44.516;2023-04-02T00:07:54;54.78;;;29.13;;
34988;SDS011;21192;40.182;44.516;2023-04-02T00:10:38;66.97;;;33.95;;
34988;SDS011;21192;40.182;44.516;2023-04-02T00:15:42;66.07;;;34.55;;
34988;SDS011;21192;40.182;44.516;2023-04-02T00:18:12;61.53;;;31.67;;
34988;SDS011;21192;40.182;44.516;2023-04-02T00:20:45;58.90;;;30.33;;
34988;SDS011;21192;40.182;44.516;2023-04-02T00:23:15;60.42;;;30.00;;
34988;SDS011;21192;40.182;44.516;2023-04-02T00:25:41;50.17;;;28.52;;
34988;SDS011;21192;40.182;44.516;2023-04-02T00:28:19;50.38;;;29.35;;
34988;SDS011;21192;40.182;44.516;2023-04-02T00:30:51;66.60;;;30.27;;
34988;SDS011;21192;40.182;44.516;2023-04-02T00:33:21;52.97;;;27.48;;
34988;SDS011;21192;40.182;44.516;2023-04-02T00:35:50;60.63;;;28.13;;
34988;SDS011;21192;40.182;44.516;2023-04-02T00:38:24;60.53;;;28.65;;
34988;SDS011;21192;40.182;44.516;2023-04-02T00:40:50;68.55;;;32.85;;
34988;SDS011;21192;40.182;44.516;2023-04-02T00:43:20;73.68;;;33.83;;
34988;SDS011;21192;40.182;44.516;2023-04-02T00:45:49;69.22;;;32.97;;
34988;SDS011;21192;40.182;44.516;2023-04-02T00:48:32;71.18;;;33.00;;
34988;SDS011;21192;40.182;44.516;2023-04-02T00:51:26;72.45;;;34.08;;
34988;SDS011;21192;40.182;44.516;2023-04-02T00:53:53;65.68;;;35.22;;
34988;SDS011;21192;40.182;44.516;2023-04-02T00:56:26;74.35;;;35.10;;
34988;SDS011;21192;40.182;44.516;2023-04-02T00:58:55;64.65;;;34.95;;
34988;SDS011;21192;40.182;44.516;2023-04-02T01:01:23;66.35;;;35.35;;
34988;SDS011;21192;40.182;44.516;2023-04-02T01:03:52;64.38;;;35.25;;
34988;SDS011;21192;40.182;44.516;2023-04-02T01:06:23;54.47;;;32.45;;
34988;SDS011;21192;40.182;44.516;2023-04-02T01:12:14;57.63;;;31.20;;
34988;SDS011;21192;40.182;44.516;2023-04-02T01:26:03;61.40;;;31.08;;
34988;SDS011;21192;40.182;44.516;2023-04-02T01:31:26;81.97;;;38.72;;
34988;SDS011;21192;40.182;44.516;2023-04-02T01:33:52;77.85;;;39.03;;
34988;SDS011;21192;40.182;44.516;2023-04-02T01:39:02;73.35;;;37.58;;
34988;SDS011;21192;40.182;44.516;2023-04-02T01:41:35;65.10;;;36.22;;
34988;SDS011;21192;40.182;44.516;2023-04-02T01:44:09;82.53;;;40.63;;
34988;SDS011;21192;40.182;44.516;2023-04-02T01:46:47;77.57;;;38.20;;
34988;SDS011;21192;40.182;44.516;2023-04-02T01:49:14;77.50;;;39.97;;
34988;SDS011;21192;40.182;44.516;2023-04-02T01:51:45;95.38;;;50.42;;
34988;SDS011;21192;40.182;44.516;2023-04-02T01:54:15;112.75;;;60.50;;
34988;SDS011;21192;40.182;44.516;2023-04-02T01:56:42;121.10;;;63.28;;
34988;SDS011;21192;40.182;44.516;2023-04-02T01:59:09;125.25;;;62.88;;
34988;SDS011;21192;40.182;44.516;2023-04-02T02:01:44;138.25;;;66.18;;
34988;SDS011;21192;40.182;44.516;2023-04-02T02:04:16;113.25;;;58.75;;
34988;SDS011;21192;40.182;44.516;2023-04-02T02:06:45;104.05;;;52.33;;
34988;SDS011;21192;40.182;44.516;2023-04-02T02:09:14;109.95;;;51.42;;
34988;SDS011;21192;40.182;44.516;2023-04-02T02:11:47;121.28;;;55.72;;
34988;SDS011;21192;40.182;44.516;2023-04-02T02:14:23;94.72;;;51.38;;
34988;SDS011;21192;40.182;44.516;2023-04-02T02:16:50;97.57;;;52.28;;
34988;SDS011;21192;40.182;44.516;2023-04-02T02:22:25;88.13;;;44.67;;
34988;SDS011;21192;40.182;44.516;2023-04-02T02:24:56;73.65;;;42.83;;
34988;SDS011;21192;40.182;44.516;2023-04-02T02:32:22;93.38;;;48.50;;
34988;SDS011;21192;40.182;44.516;2023-04-02T02:37:36;97.88;;;54.17;;
34988;SDS011;21192;40.182;44.516;2023-04-02T02:40:08;107.82;;;57.25;;
34988;SDS011;21192;40.182;44.516;2023-04-02T02:42:41;98.63;;;55.40;;
34988;SDS011;21192;40.182;44.516;2023-04-02T02:45:15;104.88;;;56.05;;
34988;SDS011;21192;40.182;44.516;2023-04-02T02:47:45;100.95;;;53.95;;
34988;SDS011;21192;40.182;44.516;2023-04-02T02:50:20;95.63;;;52.08;;
34988;SDS011;21192;40.182;44.516;2023-04-02T02:52:51;104.18;;;53.75;;
34988;SDS011;21192;40.182;44.516;2023-04-02T02:55:23;102.38;;;53.55;;
34988;SDS011;21192;40.182;44.516;2023-04-02T02:58:04;97.63;;;49.90;;
34988;SDS011;21192;40.182;44.516;2023-04-02T03:00:34;89.32;;;50.88;;
34988;SDS011;21192;40.182;44.516;2023-04-02T03:03:03;96.85;;;52.65;;
34988;SDS011;21192;40.182;44.516;2023-04-02T03:05:32;92.50;;;52.65;;
34988;SDS011;21192;40.182;44.516;2023-04-02T03:07:59;98.70;;;53.30;;
34988;SDS011;21192;40.182;44.516;2023-04-02T03:15:41;103.32;;;54.55;;
34988;SDS011;21192;40.182;44.516;2023-04-02T03:18:17;94.95;;;50.70;;
34988;SDS011;21192;40.182;44.516;2023-04-02T03:21:19;96.20;;;51.58;;
34988;SDS011;21192;40.182;44.516;2023-04-02T03:23:56;89.70;;;49.83;;
34988;SDS011;21192;40.182;44.516;2023-04-02T03:26:43;89.90;;;50.63;;
34988;SDS011;21192;40.182;44.516;2023-04-02T03:29:19;102.43;;;51.53;;
34988;SDS011;21192;40.182;44.516;2023-04-02T03:31:52;105.00;;;53.50;;
34988;SDS011;21192;40.182;44.516;2023-04-02T03:34:29;97.60;;;53.78;;
34988;SDS011;21192;40.182;44.516;2023-04-02T03:42:18;115.75;;;56.05;;
34988;SDS011;21192;40.182;44.516;2023-04-02T03:44:58;113.70;;;57.55;;
34988;SDS011;21192;40.182;44.516;2023-04-02T03:47:55;122.95;;;61.70;;
34988;SDS011;21192;40.182;44.516;2023-04-02T03:53:37;127.75;;;60.78;;
34988;SDS011;21192;40.182;44.516;2023-04-02T03:56:03;118.20;;;59.20;;
34988;SDS011;21192;40.182;44.516;2023-04-02T03:58:41;128.05;;;63.20;;
34988;SDS011;21192;40.182;44.516;2023-04-02T04:01:16;138.82;;;64.93;;
34988;SDS011;21192;40.182;44.516;2023-04-02T04:03:51;133.65;;;63.78;;
34988;SDS011;21192;40.182;44.516;2023-04-02T04:09:06;140.13;;;64.30;;
34988;SDS011;21192;40.182;44.516;2023-04-02T04:11:30;108.97;;;55.33;;
34988;SDS011;21192;40.182;44.516;2023-04-02T04:21:53;106.18;;;58.38;;
34988;SDS011;21192;40.182;44.516;2023-04-02T04:24:41;105.50;;;55.40;;
34988;SDS011;21192;40.182;44.516;2023-04-02T04:29:45;101.78;;;51.08;;
34988;SDS011;21192;40.182;44.516;2023-04-02T04:32:36;91.78;;;49.63;;
34988;SDS011;21192;40.182;44.516;2023-04-02T04:37:55;115.03;;;59.53;;
34988;SDS011;21192;40.182;44.516;2023-04-02T04:40:29;118.95;;;59.85;;
34988;SDS011;21192;40.182;44.516;2023-04-02T04:43:02;114.55;;;59.33;;
34988;SDS011;21192;40.182;44.516;2023-04-02T04:45:43;102.15;;;51.35;;
34988;SDS011;21192;40.182;44.516;2023-04-02T04:48:20;90.72;;;50.35;;
34988;SDS011;21192;40.182;44.516;2023-04-02T04:51:00;83.40;;;47.47;;
34988;SDS011;21192;40.182;44.516;2023-04-02T04:53:31;101.82;;;55.95;;
34988;SDS011;21192;40.182;44.516;2023-04-02T04:55:58;107.95;;;57.72;;
34988;SDS011;21192;40.182;44.516;2023-04-02T05:02:26;102.43;;;54.92;;
34988;SDS011;21192;40.182;44.516;2023-04-02T05:04:32;112.03;;;59.30;;
34988;SDS011;21192;40.182;44.516;2023-04-02T05:09:56;116.90;;;63.42;;
34988;SDS011;21192;40.182;44.516;2023-04-02T05:15:24;118.18;;;65.60;;
34988;SDS011;21192;40.182;44.516;2023-04-02T05:26:11;120.47;;;62.88;;
34988;SDS011;21192;40.182;44.516;2023-04-02T05:28:43;109.00;;;59.88;;
34988;SDS011;21192;40.182;44.516;2023-04-02T05:31:34;109.60;;;59.00;;
34988;SDS011;21192;40.182;44.516;2023-04-02T05:34:11;106.53;;;58.08;;
34988;SDS011;21192;40.182;44.516;2023-04-02T05:36:45;103.38;;;59.00;;
34988;SDS011;21192;40.182;44.516;2023-04-02T05:39:15;115.38;;;61.00;;
34988;SDS011;21192;40.182;44.516;2023-04-02T05:41:55;114.78;;;63.83;;
34988;SDS011;21192;40.182;44.516;2023-04-02T05:44:31;123.22;;;66.28;;
34988;SDS011;21192;40.182;44.516;2023-04-02T05:47:06;122.28;;;62.97;;
34988;SDS011;21192;40.182;44.516;2023-04-02T05:52:31;117.25;;;65.93;;
34988;SDS011;21192;40.182;44.516;2023-04-02T05:55:26;123.68;;;67.00;;
34988;SDS011;21192;40.182;44.516;2023-04-02T05:57:55;124.47;;;68.13;;
34988;SDS011;21192;40.182;44.516;2023-04-02T06:00:30;110.50;;;62.72;;
34988;SDS011;21192;40.182;44.516;2023-04-02T06:03:16;119.18;;;64.47;;
34988;SDS011;21192;40.182;44.516;2023-04-02T06:06:20;115.03;;;64.57;;
34988;SDS011;21192;40.182;44.516;2023-04-02T06:09:12;120.65;;;64.97;;
34988;SDS011;21192;40.182;44.516;2023-04-02T06:11:50;122.28;;;67.88;;
34988;SDS011;21192;40.182;44.516;2023-04-02T06:14:25;118.30;;;65.85;;
34988;SDS011;21192;40.182;44.516;2023-04-02T06:16:51;105.50;;;62.97;;
34988;SDS011;21192;40.182;44.516;2023-04-02T06:19:19;113.40;;;65.07;;
34988;SDS011;21192;40.182;44.516;2023-04-02T06:21:50;116.28;;;65.20;;
34988;SDS011;21192;40.182;44.516;2023-04-02T06:24:22;108.68;;;67.43;;
34988;SDS011;21192;40.182;44.516;2023-04-02T06:26:52;107.40;;;64.85;;
34988;SDS011;21192;40.182;44.516;2023-04-02T06:29:33;113.10;;;65.43;;
34988;SDS011;21192;40.182;44.516;2023-04-02T06:32:05;111.40;;;65.20;;
34988;SDS011;21192;40.182;44.516;2023-04-02T06:34:32;109.57;;;63.33;;
34988;SDS011;21192;40.182;44.516;2023-04-02T06:37:13;115.18;;;63.20;;
34988;SDS011;21192;40.182;44.516;2023-04-02T06:39:57;108.05;;;63.13;;
34988;SDS011;21192;40.182;44.516;2023-04-02T06:42:29;111.55;;;62.50;;
34988;SDS011;21192;40.182;44.516;2023-04-02T06:44:58;106.70;;;65.32;;
34988;SDS011;21192;40.182;44.516;2023-04-02T06:47:38;107.32;;;60.45;;
34988;SDS011;21192;40.182;44.516;2023-04-02T06:50:44;108.97;;;59.85;;
34988;SDS011;21192;40.182;44.516;2023-04-02T06:53:04;115.05;;;62.65;;
34988;SDS011;21192;40.182;44.516;2023-04-02T06:58:28;103.50;;;62.25;;
34988;SDS011;21192;40.182;44.516;2023-04-02T07:00:54;108.40;;;65.45;;
34988;SDS011;21192;40.182;44.516;2023-04-02T07:03:27;104.32;;;62.65;;
34988;SDS011;21192;40.182;44.516;2023-04-02T07:05:55;110.18;;;63.22;;
34988;SDS011;21192;40.182;44.516;2023-04-02T07:08:23;110.03;;;62.83;;
34988;SDS011;21192;40.182;44.516;2023-04-02T07:10:49;110.78;;;67.60;;
34988;SDS011;21192;40.182;44.516;2023-04-02T07:13:16;109.45;;;68.28;;
34988;SDS011;21192;40.182;44.516;2023-04-02T07:15:43;113.72;;;68.80;;
34988;SDS011;21192;40.182;44.516;2023-04-02T07:18:29;112.68;;;68.25;;
34988;SDS011;21192;40.182;44.516;2023-04-02T07:20:57;120.50;;;69.93;;
34988;SDS011;21192;40.182;44.516;2023-04-02T07:23:23;125.13;;;73.57;;
34988;SDS011;21192;40.182;44.516;2023-04-02T07:25:50;123.88;;;71.30;;
34988;SDS011;21192;40.182;44.516;2023-04-02T07:28:17;115.22;;;68.28;;
34988;SDS011;21192;40.182;44.516;2023-04-02T07:30:44;108.60;;;68.18;;
34988;SDS011;21192;40.182;44.516;2023-04-02T07:33:13;116.60;;;68.97;;
34988;SDS011;21192;40.182;44.516;2023-04-02T07:35:44;120.32;;;68.85;;
34988;SDS011;21192;40.182;44.516;2023-04-02T07:38:11;128.52;;;69.40;;
34988;SDS011;21192;40.182;44.516;2023-04-02T07:40:37;111.38;;;67.10;;
34988;SDS011;21192;40.182;44.516;2023-04-02T07:43:03;107.97;;;69.68;;
34988;SDS011;21192;40.182;44.516;2023-04-02T07:45:29;119.53;;;66.97;;
34988;SDS011;21192;40.182;44.516;2023-04-02T07:47:55;111.93;;;65.30;;
34988;SDS011;21192;40.182;44.516;2023-04-02T07:50:21;102.85;;;62.80;;
34988;SDS011;21192;40.182;44.516;2023-04-02T07:52:48;104.45;;;63.92;;
34988;SDS011;21192;40.182;44.516;2023-04-02T07:55:14;108.13;;;65.18;;
34988;SDS011;21192;40.182;44.516;2023-04-02T07:57:48;104.05;;;67.60;;
34988;SDS011;21192;40.182;44.516;2023-04-02T08:00:16;111.80;;;68.00;;
34988;SDS011;21192;40.182;44.516;2023-04-02T08:02:42;104.85;;;67.60;;
34988;SDS011;21192;40.182;44.516;2023-04-02T08:05:08;114.97;;;70.43;;
34988;SDS011;21192;40.182;44.516;2023-04-02T08:07:34;115.00;;;71.07;;
34988;SDS011;21192;40.182;44.516;2023-04-02T08:10:01;111.15;;;69.15;;
34988;SDS011;21192;40.182;44.516;2023-04-02T08:12:28;115.70;;;68.72;;
34988;SDS011;21192;40.182;44.516;2023-04-02T08:14:54;106.88;;;64.50;;
34988;SDS011;21192;40.182;44.516;2023-04-02T08:17:21;110.18;;;65.82;;
34988;SDS011;21192;40.182;44.516;2023-04-02T08:19:47;115.85;;;66.35;;
34988;SDS011;21192;40.182;44.516;2023-04-02T08:22:13;100.90;;;64.30;;
34988;SDS011;21192;40.182;44.516;2023-04-02T08:24:39;120.82;;;64.07;;
34988;SDS011;21192;40.182;44.516;2023-04-02T08:27:04;109.30;;;61.90;;
34988;SDS011;21192;40.182;44.516;2023-04-02T08:29:31;100.80;;;62.85;;
34988;SDS011;21192;40.182;44.516;2023-04-02T08:31:58;105.20;;;63.13;;
34988;SDS011;21192;40.182;44.516;2023-04-02T08:34:24;106.82;;;62.00;;
34988;SDS011;21192;40.182;44.516;2023-04-02T08:36:54;100.93;;;62.60;;
34988;SDS011;21192;40.182;44.516;2023-04-02T08:39:20;110.88;;;62.13;;
34988;SDS011;21192;40.182;44.516;2023-04-02T08:41:49;104.40;;;60.53;;
34988;SDS011;21192;40.182;44.516;2023-04-02T08:47:14;100.05;;;63.15;;
34988;SDS011;21192;40.182;44.516;2023-04-02T08:52:44;101.85;;;62.85;;
34988;SDS011;21192;40.182;44.516;2023-04-02T08:55:18;99.07;;;59.92;;
34988;SDS011;21192;40.182;44.516;2023-04-02T08:57:53;97.55;;;58.45;;
34988;SDS011;21192;40.182;44.516;2023-04-02T09:03:09;93.15;;;57.38;;
34988;SDS011;21192;40.182;44.516;2023-04-02T09:05:46;90.80;;;54.35;;
34988;SDS011;21192;40.182;44.516;2023-04-02T09:08:18;89.88;;;53.72;;
34988;SDS011;21192;40.182;44.516;2023-04-02T09:11:07;94.13;;;54.67;;
34988;SDS011;21192;40.182;44.516;2023-04-02T09:13:44;85.50;;;53.28;;
34988;SDS011;21192;40.182;44.516;2023-04-02T09:16:14;84.53;;;51.20;;
34988;SDS011;21192;40.182;44.516;2023-04-02T09:18:44;89.75;;;50.63;;
34988;SDS011;21192;40.182;44.516;2023-04-02T09:23:47;64.95;;;42.78;;
34988;SDS011;21192;40.182;44.516;2023-04-02T09:26:21;75.93;;;41.65;;
34988;SDS011;21192;40.182;44.516;2023-04-02T09:28:55;71.50;;;40.35;;
34988;SDS011;21192;40.182;44.516;2023-04-02T09:31:33;61.72;;;37.63;;
34988;SDS011;21192;40.182;44.516;2023-04-02T09:34:31;58.13;;;36.05;;
34988;SDS011;21192;40.182;44.516;2023-04-02T09:39:55;46.70;;;27.83;;
34988;SDS011;21192;40.182;44.516;2023-04-02T09:43:02;46.08;;;26.73;;
34988;SDS011;21192;40.182;44.516;2023-04-02T09:45:37;39.53;;;25.80;;
34988;SDS011;21192;40.182;44.516;2023-04-02T09:48:13;37.60;;;24.65;;
34988;SDS011;21192;40.182;44.516;2023-04-02T09:51:27;39.25;;;24.52;;
34988;SDS011;21192;40.182;44.516;2023-04-02T09:53:49;34.50;;;23.58;;
34988;SDS011;21192;40.182;44.516;2023-04-02T09:56:37;37.22;;;21.42;;
34988;SDS011;21192;40.182;44.516;2023-04-02T09:59:05;32.72;;;21.08;;
34988;SDS011;21192;40.182;44.516;2023-04-02T10:01:38;36.70;;;22.70;;
34988;SDS011;21192;40.182;44.516;2023-04-02T10:10:03;30.38;;;17.35;;
34988;SDS011;21192;40.182;44.516;2023-04-02T10:13:39;24.75;;;15.35;;
34988;SDS011;21192;40.182;44.516;2023-04-02T10:16:06;28.73;;;15.48;;
34988;SDS011;21192;40.182;44.516;2023-04-02T10:18:43;31.25;;;16.08;;
34988;SDS011;21192;40.182;44.516;2023-04-02T10:21:24;26.63;;;13.02;;
34988;SDS011;21192;40.182;44.516;2023-04-02T10:23:53;22.52;;;12.80;;
34988;SDS011;21192;40.182;44.516;2023-04-02T10:36:53;19.30;;;11.45;;
34988;SDS011;21192;40.182;44.516;2023-04-02T10:42:18;20.67;;;10.15;;
34988;SDS011;21192;40.182;44.516;2023-04-02T10:45:04;19.73;;;10.48;;
34988;SDS011;21192;40.182;44.516;2023-04-02T10:47:50;24.58;;;12.45;;
34988;SDS011;21192;40.182;44.516;2023-04-02T10:53:28;18.90;;;10.68;;
34988;SDS011;21192;40.182;44.516;2023-04-02T10:56:04;16.55;;;11.27;;
34988;SDS011;21192;40.182;44.516;2023-04-02T10:58:36;22.10;;;11.52;;
34988;SDS011;21192;40.182;44.516;2023-04-02T11:01:16;23.77;;;11.80;;
34988;SDS011;21192;40.182;44.516;2023-04-02T11:03:51;19.10;;;10.98;;
34988;SDS011;21192;40.182;44.516;2023-04-02T11:06:31;24.45;;;10.65;;
34988;SDS011;21192;40.182;44.516;2023-04-02T11:09:03;17.48;;;9.52;;
34988;SDS011;21192;40.182;44.516;2023-04-02T11:11:37;18.55;;;8.13;;
34988;SDS011;21192;40.182;44.516;2023-04-02T11:14:11;16.90;;;9.52;;
34988;SDS011;21192;40.182;44.516;2023-04-02T11:16:57;19.30;;;9.45;;
34988;SDS011;21192;40.182;44.516;2023-04-02T11:19:27;18.48;;;9.20;;
34988;SDS011;21192;40.182;44.516;2023-04-02T11:40:05;20.77;;;9.13;;
34988;SDS011;21192;40.182;44.516;2023-04-02T11:42:41;17.38;;;8.63;;
34988;SDS011;21192;40.182;44.516;2023-04-02T11:50:31;23.23;;;9.10;;
34988;SDS011;21192;40.182;44.516;2023-04-02T11:53:04;20.90;;;7.90;;
34988;SDS011;21192;40.182;44.516;2023-04-02T11:55:41;15.00;;;6.63;;
34988;SDS011;21192;40.182;44.516;2023-04-02T12:11:35;14.50;;;5.97;;
34988;SDS011;21192;40.182;44.516;2023-04-02T12:19:57;19.25;;;7.15;;
34988;SDS011;21192;40.182;44.516;2023-04-02T12:22:29;16.58;;;7.88;;
34988;SDS011;21192;40.182;44.516;2023-04-02T12:25:01;16.38;;;7.72;;
34988;SDS011;21192;40.182;44.516;2023-04-02T12:27:42;17.33;;;7.97;;
34988;SDS011;21192;40.182;44.516;2023-04-02T12:30:17;17.20;;;8.43;;
34988;SDS011;21192;40.182;44.516;2023-04-02T12:32:44;16.02;;;7.40;;
34988;SDS011;21192;40.182;44.516;2023-04-02T12:35:31;18.50;;;8.88;;
34988;SDS011;21192;40.182;44.516;2023-04-02T12:37:59;19.17;;;12.32;;
34988;SDS011;21192;40.182;44.516;2023-04-02T12:40:25;19.75;;;9.48;;
34988;SDS011;21192;40.182;44.516;2023-04-02T12:42:51;17.80;;;8.02;;
34988;SDS011;21192;40.182;44.516;2023-04-02T12:45:24;13.98;;;7.90;;
34988;SDS011;21192;40.182;44.516;2023-04-02T12:47:52;12.35;;;6.22;;
34988;SDS011;21192;40.182;44.516;2023-04-02T12:50:19;20.02;;;6.70;;
34988;SDS011;21192;40.182;44.516;2023-04-02T12:52:47;17.30;;;7.20;;
34988;SDS011;21192;40.182;44.516;2023-04-02T12:55:16;12.50;;;7.75;;
34988;SDS011;21192;40.182;44.516;2023-04-02T12:57:48;12.32;;;6.80;;
34988;SDS011;21192;40.182;44.516;2023-04-02T13:02:46;14.50;;;6.57;;
34988;SDS011;21192;40.182;44.516;2023-04-02T13:05:36;15.60;;;6.75;;
34988;SDS011;21192;40.182;44.516;2023-04-02T13:08:00;9.45;;;6.22;;
34988;SDS011;21192;40.182;44.516;2023-04-02T13:10:28;12.15;;;6.55;;
34988;SDS011;21192;40.182;44.516;2023-04-02T13:12:56;12.10;;;6.38;;
34988;SDS011;21192;40.182;44.516;2023-04-02T13:15:26;16.17;;;7.10;;
34988;SDS011;21192;40.182;44.516;2023-04-02T13:18:04;10.95;;;6.18;;
34988;SDS011;21192;40.182;44.516;2023-04-02T13:20:40;10.32;;;7.25;;
34988;SDS011;21192;40.182;44.516;2023-04-02T13:26:13;15.85;;;7.57;;
34988;SDS011;21192;40.182;44.516;2023-04-02T13:28:41;14.60;;;6.50;;
34988;SDS011;21192;40.182;44.516;2023-04-02T13:31:18;20.17;;;8.35;;
34988;SDS011;21192;40.182;44.516;2023-04-02T13:33:44;14.23;;;7.90;;
34988;SDS011;21192;40.182;44.516;2023-04-02T13:36:13;14.88;;;7.57;;
34988;SDS011;21192;40.182;44.516;2023-04-02T13:38:39;16.42;;;9.13;;
34988;SDS011;21192;40.182;44.516;2023-04-02T13:41:09;16.73;;;8.05;;
34988;SDS011;21192;40.182;44.516;2023-04-02T13:43:44;18.02;;;8.55;;
34988;SDS011;21192;40.182;44.516;2023-04-02T13:46:12;15.68;;;8.60;;
34988;SDS011;21192;40.182;44.516;2023-04-02T13:48:47;16.75;;;7.50;;
34988;SDS011;21192;40.182;44.516;2023-04-02T13:51:17;11.35;;;6.55;;
34988;SDS011;21192;40.182;44.516;2023-04-02T13:53:49;14.13;;;6.97;;
34988;SDS011;21192;40.182;44.516;2023-04-02T13:56:19;24.65;;;11.32;;
34988;SDS011;21192;40.182;44.516;2023-04-02T13:58:47;19.45;;;8.57;;
34988;SDS011;21192;40.182;44.516;2023-04-02T14:01:13;13.65;;;7.55;;
34988;SDS011;21192;40.182;44.516;2023-04-02T14:03:39;17.75;;;7.38;;
34988;SDS011;21192;40.182;44.516;2023-04-02T14:06:14;17.75;;;7.38;;
34988;SDS011;21192;40.182;44.516;2023-04-02T14:11:53;24.40;;;11.63;;
34988;SDS011;21192;40.182;44.516;2023-04-02T14:26:01;16.15;;;8.27;;
34988;SDS011;21192;40.182;44.516;2023-04-02T14:39:28;15.50;;;8.02;;
34988;SDS011;21192;40.182;44.516;2023-04-02T14:41:57;15.80;;;9.43;;
34988;SDS011;21192;40.182;44.516;2023-04-02T14:44:26;16.38;;;9.02;;
34988;SDS011;21192;40.182;44.516;2023-04-02T14:47:01;19.50;;;10.27;;
34988;SDS011;21192;40.182;44.516;2023-04-02T14:49:50;17.95;;;11.70;;
34988;SDS011;21192;40.182;44.516;2023-04-02T14:52:20;31.15;;;18.90;;
34988;SDS011;21192;40.182;44.516;2023-04-02T14:54:49;24.45;;;14.55;;
34988;SDS011;21192;40.182;44.516;2023-04-02T14:59:59;16.90;;;9.73;;
34988;SDS011;21192;40.182;44.516;2023-04-02T15:02:46;23.75;;;12.43;;
34988;SDS011;21192;40.182;44.516;2023-04-02T15:08:02;17.77;;;10.02;;
34988;SDS011;21192;40.182;44.516;2023-04-02T15:10:34;14.40;;;9.30;;
34988;SDS011;21192;40.182;44.516;2023-04-02T15:13:17;21.30;;;10.93;;
34988;SDS011;21192;40.182;44.516;2023-04-02T15:15:51;15.68;;;8.57;;
34988;SDS011;21192;40.182;44.516;2023-04-02T15:18:50;24.17;;;11.40;;
34988;SDS011;21192;40.182;44.516;2023-04-02T15:29:35;27.75;;;13.90;;
34988;SDS011;21192;40.182;44.516;2023-04-02T15:37:54;22.23;;;12.85;;
34988;SDS011;21192;40.182;44.516;2023-04-02T15:46:08;27.17;;;14.10;;
34988;SDS011;21192;40.182;44.516;2023-04-02T15:54:42;26.92;;;14.98;;
34988;SDS011;21192;40.182;44.516;2023-04-02T16:02:39;28.95;;;17.55;;
34988;SDS011;21192;40.182;44.516;2023-04-02T16:10:49;27.52;;;15.68;;
34988;SDS011;21192;40.182;44.516;2023-04-02T16:13:24;26.60;;;17.02;;
34988;SDS011;21192;40.182;44.516;2023-04-02T16:16:03;27.40;;;14.65;;
34988;SDS011;21192;40.182;44.516;2023-04-02T16:21:33;25.20;;;15.55;;
34988;SDS011;21192;40.182;44.516;2023-04-02T16:24:30;27.23;;;15.05;;
34988;SDS011;21192;40.182;44.516;2023-04-02T16:32:51;22.08;;;9.20;;
34988;SDS011;21192;40.182;44.516;2023-04-02T16:35:47;25.85;;;12.23;;
34988;SDS011;21192;40.182;44.516;2023-04-02T16:52:51;30.15;;;15.90;;
34988;SDS011;21192;40.182;44.516;2023-04-02T17:00:19;25.65;;;13.43;;
34988;SDS011;21192;40.182;44.516;2023-04-02T17:03:01;18.08;;;10.77;;
34988;SDS011;21192;40.182;44.516;2023-04-02T17:08:24;17.33;;;10.32;;
34988;SDS011;21192;40.182;44.516;2023-04-02T17:19:10;17.60;;;8.32;;
34988;SDS011;21192;40.182;44.516;2023-04-02T17:21:39;23.25;;;12.48;;
34988;SDS011;21192;40.182;44.516;2023-04-02T17:26:53;13.60;;;8.40;;
34988;SDS011;21192;40.182;44.516;2023-04-02T17:29:37;22.00;;;10.95;;
34988;SDS011;21192;40.182;44.516;2023-04-02T17:32:11;24.00;;;14.52;;
34988;SDS011;21192;40.182;44.516;2023-04-02T17:40:31;19.42;;;11.27;;
34988;SDS011;21192;40.182;44.516;2023-04-02T17:45:55;20.23;;;9.93;;
34988;SDS011;21192;40.182;44.516;2023-04-02T18:05:08;18.38;;;9.25;;
34988;SDS011;21192;40.182;44.516;2023-04-02T18:08:39;28.20;;;9.45;;
34988;SDS011;21192;40.182;44.516;2023-04-02T18:13:39;16.73;;;8.90;;
34988;SDS011;21192;40.182;44.516;2023-04-02T18:21:59;16.58;;;8.05;;
34988;SDS011;21192;40.182;44.516;2023-04-02T18:27:25;15.93;;;6.68;;
34988;SDS011;21192;40.182;44.516;2023-04-02T18:30:06;15.73;;;7.63;;
34988;SDS011;21192;40.182;44.516;2023-04-02T18:35:30;12.00;;;6.85;;
34988;SDS011;21192;40.182;44.516;2023-04-02T18:49:13;14.82;;;7.60;;
34988;SDS011;21192;40.182;44.516;2023-04-02T18:51:48;22.48;;;9.70;;
34988;SDS011;21192;40.182;44.516;2023-04-02T18:54:27;15.80;;;7.60;;
34988;SDS011;21192;40.182;44.516;2023-04-02T18:56:54;21.52;;;7.60;;
34988;SDS011;21192;40.182;44.516;2023-04-02T18:59:37;15.55;;;8.23;;
34988;SDS011;21192;40.182;44.516;2023-04-02T19:02:40;18.30;;;8.90;;
34988;SDS011;21192;40.182;44.516;2023-04-02T19:08:01;15.05;;;7.40;;
34988;SDS011;21192;40.182;44.516;2023-04-02T19:10:39;16.73;;;7.97;;
34988;SDS011;21192;40.182;44.516;2023-04-02T19:13:12;19.27;;;8.15;;
34988;SDS011;21192;40.182;44.516;2023-04-02T19:18:41;13.40;;;7.22;;
34988;SDS011;21192;40.182;44.516;2023-04-02T19:29:46;13.48;;;6.25;;
34988;SDS011;21192;40.182;44.516;2023-04-02T19:41:13;10.70;;;5.95;;
34988;SDS011;21192;40.182;44.516;2023-04-02T19:43:52;12.60;;;5.78;;
34988;SDS011;21192;40.182;44.516;2023-04-02T19:46:19;12.15;;;6.13;;
34988;SDS011;21192;40.182;44.516;2023-04-02T19:51:27;11.27;;;5.30;;
34988;SDS011;21192;40.182;44.516;2023-04-02T19:53:53;9.27;;;5.05;;
34988;SDS011;21192;40.182;44.516;2023-04-02T19:56:19;9.98;;;4.82;;
34988;SDS011;21192;40.182;44.516;2023-04-02T19:58:46;10.52;;;4.80;;
34988;SDS011;21192;40.182;44.516;2023-04-02T20:01:11;11.18;;;4.68;;
34988;SDS011;21192;40.182;44.516;2023-04-02T20:03:37;11.68;;;5.20;;
34988;SDS011;21192;40.182;44.516;2023-04-02T20:06:03;12.55;;;5.60;;
34988;SDS011;21192;40.182;44.516;2023-04-02T20:08:29;11.48;;;4.88;;
34988;SDS011;21192;40.182;44.516;2023-04-02T20:10:55;12.15;;;5.35;;
34988;SDS011;21192;40.182;44.516;2023-04-02T20:13:23;13.95;;;5.63;;
34988;SDS011;21192;40.182;44.516;2023-04-02T20:15:49;12.20;;;6.60;;
34988;SDS011;21192;40.182;44.516;2023-04-02T20:18:15;19.88;;;8.65;;
34988;SDS011;21192;40.182;44.516;2023-04-02T20:20:45;15.70;;;6.78;;
34988;SDS011;21192;40.182;44.516;2023-04-02T20:23:12;14.20;;;6.70;;
34988;SDS011;21192;40.182;44.516;2023-04-02T20:25:42;15.10;;;6.63;;
34988;SDS011;21192;40.182;44.516;2023-04-02T20:28:10;13.18;;;5.88;;
34988;SDS011;21192;40.182;44.516;2023-04-02T20:30:36;15.73;;;7.22;;
34988;SDS011;21192;40.182;44.516;2023-04-02T20:33:02;17.30;;;6.90;;
34988;SDS011;21192;40.182;44.516;2023-04-02T20:35:27;13.45;;;7.00;;
34988;SDS011;21192;40.182;44.516;2023-04-02T20:37:55;13.30;;;6.22;;
34988;SDS011;21192;40.182;44.516;2023-04-02T20:40:20;15.07;;;6.90;;
34988;SDS011;21192;40.182;44.516;2023-04-02T20:42:46;20.33;;;8.10;;
34988;SDS011;21192;40.182;44.516;2023-04-02T20:45:12;19.90;;;8.98;;